Flugplatz Ellwangen

Für EDPY sind keine METAR/TAF Berichte vorhanden.
Es werden die Flugwettermeldungen vom Flugplatz Adolf Würth in 37 km Entfernung angezeigt.

Bericht für EDTY

vom 07.03. um 02:20 UTC

Wind 3 kt aus 70°

Sichtweite 10 km oder mehr

keine Wolken

Temperatur -5.0°C

Taupunkt -8.0°C

Luftfeuchtigkeit 79%

Luftdruck 1025 hPa

EDTY 070220Z AUTO 07003KT 9999 // NCD M05/M08 Q1025

Prognose für EDTY

vom 06.03. um 17:00 UTC

Am 06.03. zwischen 18:00 UTC und 03:00 UTC

Wind 8 kt aus 70°

Sichtweite 10 km oder mehr

keine signifikanten Wettererscheinungen

keine Wolken


Am 06.03. zwischen 18:00 und 20:00 UTC übergehend zu

variable Windrichtung mit 3 kt

Sichtweite 10 km oder mehr

keine signifikanten Wettererscheinungen

keine Wolken

TAF EDTY 061700Z 0618/0703 07008KT CAVOK BECMG 0618/0620 VRB03KT
Impressum